Aeroporto :
LOGIN :

Iscrizione | Disclaimer

   EN    FR    IT 

 










Sommario :    VFR   VFR Marginale   IFR   IFR Intensivo   IFR Molto Intensivo
Visibilità : 
Base nubi : 
>= 8 km
>= 3000ft
5 / 8 km
1000 / 3000 ft
1500m / 5 km
500 / 1000 ft
800 / 1500m
200 / 500 ft
< 800m
< 200 ft
Simboli :   Temporali  Nebbia  Neve Forte  Precipitazioni Forti  Vento > 20 kt
SIGMETs :   Varie  Temporali  Ghiacco  Turbolenza  Onda orograficha  Ceneri Vulcaniche







- Altitudine del aeroporto : 55 ft
- Carte del aeroporto


EGNO - Warton Preston

ULTIMO METAR :
  • 210650Z 18005KT 9999 FEW016 SCT020 14/14 Q1024

METARs OBSOLETI :
  • 210620Z 17005KT 9999 FEW015 SCT018 14/14 Q1023
  • 210550Z 17005KT 9999 SCT015 14/13 Q1023

TAF TAF EGNO
Valido dal 21 a 06 ore il 21 a 15 ore UTC


210626Z 2106/2115 18008KT 9999 SCT020
PROB30
TEMPO 2106/2109 BKN014
TEMPO 2112/2115 6000 SHRA
PROB30
TEMPO 2112/2115 22015G25KT
ATIS : +44 1772 856 060
Nessun NOTAM noto per questo aeroporto.



MetMap, La meteo Aeronautica in un colpo d'occhio ! - Copyright ORBIFLY Dicembre 2007 - Disclaimer

ORBIFLY MET'MAP TEAM :

Programmazione e sviluppo : Alexandra Zaïnal
Concezione e sviluppo : Baudouin d'Aumeries
Co-Programmazione e sviluppo : Marc-Olivier Méhu
Supporto tecnico e logistico : Manuel Goepfert
Aiuto per la traduzione : Arnaldo La Scala

Contatto : metmap@orbifly.com




FONTI E CREDITI :

   NOAA